Sebastian, FL

10:09 PM EDT on March 23, 2017 (GMT -0400)
East Tulip | | Change Station
Active Advisory: High Surf Advisory Active Notice: High Surf Advisory

Elev 20 ft 27.78 °N, 80.48 °W | Updated 14 seconds ago

Rain
Rain
65.0 °F
Feels Like 65.0 °F
N
11.0
Wind Variable Wind from East

Today
High -- | Low -- °F
--% Chance of Precip.
Yesterday
High -- | Low -- °F
Precip. -- in
Pressure 30.30 in
Visibility 9.0 miles
Clouds Scattered Clouds 3200 ft
Mostly Cloudy 4000 ft
Overcast 4900 ft
Dew Point 62 °F
Humidity 90%
Rainfall 1.15 in
Snow Depth Not available.
7:22 AM 7:34 PM
Waning Crescent, 19% visible
METAR KVRB 240153Z 05016G22KT 9SM SCT032 BKN040 OVC049 20/17 A3031 RMK AO2 SLP261 T02000172 $
Pressure 30.30 in
Visibility 9.0 miles
Clouds Scattered Clouds 3200 ft
Mostly Cloudy 4000 ft
Overcast 4900 ft
Dew Point 62 °F
Humidity 90%
Rainfall 1.15 in
Snow Depth Not available.
7:22 AM 7:34 PM
Waning Crescent, 19% visible
METAR KVRB 240153Z 05016G22KT 9SM SCT032 BKN040 OVC049 20/17 A3031 RMK AO2 SLP261 T02000172 $

Get Your Daily Forecast Email!

Thanks for signing up!

Be on the lookout for a verification email in your inbox.

You'll start receiving severe weather alerts in your inbox..

×

10-Day Weather Forecast

Almanac

Astronomy

Mar. 23, 2017 Rise Set
Actual Time
Civil Twilight
Nautical Twilight
Astronomical Twilight
Moon
Length of Visible Light
Length of Day
Tomorrow will be .
, % of the Moon is Illuminated

Today's Extremes

State Highs State Lows

Community

WunderPhotos

Upload Photos

1,962,540 photos uploaded!

WunderBlog® & News

Nearby

Air Quality

  Air Quality AQ Index Pollutant
Not available.

Snow Depth

Station Depth Elevation

Earthquake Activity

City Distance Mag. Time & Date
Minimum magnitude displayed is 2.5.

Earthquake Activity

City Distance Mag. Time & Date
Minimum magnitude displayed is 2.5.

Coastal Water Temperatures

Place Temperature

Stations

Nearby Weather Stations

Station Location Temp. Windchill Dew Point Humidity Wind Precip. Elev Updated Type
                   

Watches & Warnings

High Surf Advisory
Issued: 8:13 PM EDT Mar. 23, 2017 – National Weather Service

... High surf advisory remains in effect until 5 am EDT Friday...

* waves and surf... building surf of 5 to 7 feet will continue
along the East Coast beaches tonight.

* Timing... high surf along the coast will continue through tonight.

* Impacts... large waves may cause minor beach erosion.

Precautionary/preparedness actions...

A high surf advisory means that high surf will affect beaches in
the advisory area... producing localized beach erosion and
dangerous swimming conditions.



Sedlock